createdAt,value
2023-05-17T00:00:03.935Z,992.2464
2023-05-17T00:01:01.766Z,992.1552
2023-05-17T00:02:03.850Z,992.0002
2023-05-17T00:03:01.861Z,992.0986
2023-05-17T00:04:02.225Z,992.2832
2023-05-17T00:05:03.326Z,992.3115
2023-05-17T00:06:02.161Z,992.2684
2023-05-17T00:07:01.538Z,992.1552
2023-05-17T00:08:02.054Z,992.0849
2023-05-17T00:09:01.463Z,992.3396
2023-05-17T00:10:01.971Z,992.1284
2023-05-17T00:11:03.075Z,992.2622
2023-05-17T00:12:01.847Z,992.3113
2023-05-17T00:13:02.958Z,992.185
2023-05-17T00:14:03.441Z,992.4251
2023-05-17T00:15:02.250Z,992.2554
2023-05-17T00:16:01.725Z,992.3119
2023-05-17T00:17:02.192Z,992.2554
2023-05-17T00:18:03.389Z,992.3477
2023-05-17T00:19:03.858Z,992.1928
2023-05-17T00:20:01.559Z,992.2989
2023-05-17T00:21:03.691Z,992.2997
2023-05-17T00:22:01.530Z,992.2997
2023-05-17T00:23:02.034Z,992.3563
2023-05-17T00:24:01.448Z,992.526
2023-05-17T00:25:03.590Z,992.2714
2023-05-17T00:26:01.357Z,992.2997
2023-05-17T00:27:02.042Z,992.3136
2023-05-17T00:28:02.347Z,992.5323
2023-05-17T00:29:01.762Z,992.37
2023-05-17T00:30:03.935Z,992.3631
2023-05-17T00:31:01.696Z,992.328
2023-05-17T00:32:02.170Z,992.4411
2023-05-17T00:33:01.789Z,992.3563
2023-05-17T00:34:03.879Z,992.3563
2023-05-17T00:35:03.323Z,992.5826
2023-05-17T00:36:02.100Z,992.5826
2023-05-17T00:37:01.538Z,992.4208
2023-05-17T00:38:03.681Z,992.3563
2023-05-17T00:39:03.158Z,992.3151
2023-05-17T00:40:01.928Z,992.4282
2023-05-17T00:41:03.028Z,992.2725
2023-05-17T00:42:01.879Z,992.4411
2023-05-17T00:43:02.968Z,992.4565
2023-05-17T00:44:01.866Z,992.3869
2023-05-17T00:45:04.028Z,992.3656
2023-05-17T00:46:03.355Z,992.4854
2023-05-17T00:47:02.258Z,992.4222
2023-05-17T00:48:01.772Z,992.3091
2023-05-17T00:49:02.165Z,992.3374
2023-05-17T00:50:01.601Z,992.3374
2023-05-17T00:51:03.772Z,992.4923
2023-05-17T00:52:03.195Z,992.2808
2023-05-17T00:53:01.996Z,992.3869
2023-05-17T00:54:03.123Z,992.38
2023-05-17T00:55:01.957Z,992.3663
2023-05-17T00:56:01.375Z,992.3952
2023-05-17T00:57:02.266Z,992.4372
2023-05-17T00:58:01.681Z,992.5511
2023-05-17T00:59:02.205Z,992.4808
2023-05-17T01:00:01.610Z,992.5022
2023-05-17T01:01:02.081Z,992.5095
2023-05-17T01:02:03.222Z,992.3615
2023-05-17T01:03:02.148Z,992.4677
2023-05-17T01:04:01.611Z,992.3975
2023-05-17T01:05:02.087Z,992.5388
2023-05-17T01:06:01.452Z,992.3409
2023-05-17T01:07:01.943Z,992.3767
2023-05-17T01:08:01.442Z,992.3212
2023-05-17T01:09:03.601Z,992.4342
2023-05-17T01:10:03.048Z,992.6105
2023-05-17T01:11:01.913Z,992.4554
2023-05-17T01:12:01.355Z,992.4839
2023-05-17T01:13:01.891Z,992.4982
2023-05-17T01:14:02.329Z,992.5122
2023-05-17T01:15:01.764Z,992.583
2023-05-17T01:16:02.255Z,992.4928
2023-05-17T01:17:01.748Z,992.6195
2023-05-17T01:18:03.993Z,992.4789
2023-05-17T01:19:01.804Z,992.3941
2023-05-17T01:20:03.960Z,992.5638
2023-05-17T01:21:01.623Z,992.4226
2023-05-17T01:22:03.766Z,992.557
2023-05-17T01:23:01.595Z,992.6064
2023-05-17T01:24:01.999Z,992.4799
2023-05-17T01:25:01.501Z,992.6417
2023-05-17T01:26:02.042Z,992.5858
2023-05-17T01:27:01.427Z,992.6141
2023-05-17T01:28:01.936Z,992.466
2023-05-17T01:29:01.461Z,992.6569
2023-05-17T01:30:01.941Z,992.5088
2023-05-17T01:31:01.378Z,992.6224
2023-05-17T01:32:01.858Z,992.7
2023-05-17T01:33:01.469Z,992.6443
2023-05-17T01:34:01.918Z,992.9023
2023-05-17T01:35:01.358Z,992.7718
2023-05-17T01:36:01.826Z,992.8146
2023-05-17T01:37:04.026Z,992.7016
2023-05-17T01:38:01.774Z,992.7016
2023-05-17T01:39:03.914Z,992.7299
2023-05-17T01:40:03.356Z,992.6812
2023-05-17T01:41:02.155Z,992.6597
2023-05-17T01:42:03.379Z,992.6597
2023-05-17T01:43:02.156Z,992.6179
2023-05-17T01:44:01.598Z,992.7026
2023-05-17T01:45:02.083Z,992.5614
2023-05-17T01:46:01.590Z,992.5683
2023-05-17T01:47:02.070Z,992.6314
2023-05-17T01:48:01.621Z,992.6461
2023-05-17T01:49:03.731Z,992.7942
2023-05-17T01:50:03.122Z,992.604
2023-05-17T01:51:01.934Z,992.5897
2023-05-17T01:52:01.424Z,992.5619
2023-05-17T01:53:02.328Z,992.7169
2023-05-17T01:54:01.386Z,992.6046
2023-05-17T01:55:01.845Z,992.6679
2023-05-17T01:56:03.054Z,992.8305
2023-05-17T01:57:01.837Z,992.6328
2023-05-17T01:58:02.341Z,992.6611
2023-05-17T01:59:03.443Z,992.6611
2023-05-17T02:00:03.916Z,992.5703
2023-05-17T02:01:01.756Z,992.6129
2023-05-17T02:02:03.910Z,992.6627
2023-05-17T02:03:01.988Z,992.5855
2023-05-17T02:04:02.259Z,992.6205
2023-05-17T02:05:03.454Z,992.7129
2023-05-17T02:06:03.835Z,992.6778
2023-05-17T02:07:01.682Z,992.7201
2023-05-17T02:08:02.146Z,992.7485
2023-05-17T02:09:01.604Z,992.7211
2023-05-17T02:10:03.697Z,992.7493
2023-05-17T02:11:03.359Z,992.8124
2023-05-17T02:12:03.679Z,992.6784
2023-05-17T02:13:01.454Z,992.7493
2023-05-17T02:14:01.917Z,992.9018
2023-05-17T02:15:03.111Z,992.7278
2023-05-17T02:16:01.920Z,992.7842
2023-05-17T02:17:03.035Z,992.9361
2023-05-17T02:18:01.985Z,992.6713
2023-05-17T02:19:02.378Z,992.7485
2023-05-17T02:20:03.448Z,992.8688
2023-05-17T02:21:03.929Z,992.7278
2023-05-17T02:22:01.676Z,992.6364
2023-05-17T02:23:02.186Z,992.7989
2023-05-17T02:24:01.604Z,992.7072
2023-05-17T02:25:02.075Z,992.8065
2023-05-17T02:26:01.517Z,992.7858
2023-05-17T02:27:03.677Z,992.6874
2023-05-17T02:28:01.451Z,992.6808
2023-05-17T02:29:01.944Z,992.6737
2023-05-17T02:30:01.445Z,992.5746
2023-05-17T02:31:01.938Z,992.5115
2023-05-17T02:32:01.366Z,992.4833
2023-05-17T02:33:01.898Z,992.4833
2023-05-17T02:34:02.366Z,992.6592
2023-05-17T02:35:01.744Z,992.5248
2023-05-17T02:36:03.914Z,992.6943
2023-05-17T02:37:01.672Z,992.5601
2023-05-17T02:38:03.860Z,992.7644
2023-05-17T02:39:01.606Z,992.6447
2023-05-17T02:40:02.137Z,992.7781
2023-05-17T02:41:01.518Z,992.6935
2023-05-17T02:42:02.037Z,992.6937
2023-05-17T02:43:01.534Z,992.6302
2023-05-17T02:44:02.048Z,992.708
2023-05-17T02:45:01.446Z,992.849
2023-05-17T02:46:02.005Z,992.7575
2023-05-17T02:47:03.181Z,992.8351
2023-05-17T02:48:01.880Z,992.7156
2023-05-17T02:49:01.390Z,992.8712
2023-05-17T02:50:01.841Z,992.7372
2023-05-17T02:51:03.985Z,992.8894
2023-05-17T02:52:01.760Z,992.8894
2023-05-17T02:53:02.245Z,992.843
2023-05-17T02:54:01.685Z,992.9458
2023-05-17T02:55:02.208Z,992.974
2023-05-17T02:56:01.598Z,992.8224
2023-05-17T02:57:02.112Z,993.0892
2023-05-17T02:58:01.595Z,993.1319
2023-05-17T02:59:02.129Z,993.125
2023-05-17T03:00:03.226Z,993.041
2023-05-17T03:01:01.995Z,992.9546
2023-05-17T03:02:03.148Z,993.1532
2023-05-17T03:03:02.048Z,992.9264
2023-05-17T03:04:01.645Z,993.1538
2023-05-17T03:05:02.061Z,992.9553
2023-05-17T03:06:01.439Z,993.313
2023-05-17T03:07:01.995Z,993.0981
2023-05-17T03:08:01.534Z,993.0701
2023-05-17T03:09:02.199Z,993.2102
2023-05-17T03:10:02.255Z,993.0974
2023-05-17T03:11:06.085Z,993.313
2023-05-17T03:12:01.761Z,993.1827
2023-05-17T03:13:02.246Z,993.3694
2023-05-17T03:14:01.698Z,993.32
2023-05-17T03:15:02.187Z,993.3551
2023-05-17T03:16:01.720Z,993.1256
2023-05-17T03:17:02.176Z,993.313
2023-05-17T03:18:01.683Z,993.231
2023-05-17T03:19:02.326Z,993.1395
2023-05-17T03:20:03.289Z,993.2384
2023-05-17T03:21:02.037Z,993.2857
2023-05-17T03:22:01.530Z,993.3213
2023-05-17T03:23:02.017Z,993.2931
2023-05-17T03:24:01.463Z,993.3564
2023-05-17T03:25:01.944Z,993.3074
2023-05-17T03:26:01.461Z,993.1909
2023-05-17T03:27:01.837Z,993.2792
2023-05-17T03:28:03.050Z,993.2473
2023-05-17T03:29:01.876Z,993.2586
2023-05-17T03:30:02.324Z,993.2616
2023-05-17T03:31:03.546Z,993.248
2023-05-17T03:32:02.237Z,993.3302
2023-05-17T03:33:01.770Z,993.4716
2023-05-17T03:34:02.463Z,993.429
2023-05-17T03:35:01.682Z,993.337
2023-05-17T03:36:02.165Z,993.3088
2023-05-17T03:37:01.601Z,993.5129
2023-05-17T03:38:03.735Z,993.4489
2023-05-17T03:39:03.233Z,993.4278
2023-05-17T03:40:02.003Z,993.3155
2023-05-17T03:41:01.506Z,993.3508
2023-05-17T03:42:01.996Z,993.4986
2023-05-17T03:43:01.477Z,993.3508
2023-05-17T03:44:01.934Z,993.4278
2023-05-17T03:45:01.458Z,993.4628
2023-05-17T03:46:01.924Z,993.4697
2023-05-17T03:47:01.351Z,993.5048
2023-05-17T03:48:01.874Z,993.6671
2023-05-17T03:49:01.374Z,993.5819
2023-05-17T03:50:01.861Z,993.5324
2023-05-17T03:51:01.377Z,993.4692
2023-05-17T03:52:01.832Z,993.5395
2023-05-17T03:53:02.319Z,993.5957
2023-05-17T03:54:01.775Z,993.7078
2023-05-17T03:55:02.272Z,993.5113
2023-05-17T03:56:01.692Z,993.5386
2023-05-17T03:57:02.170Z,993.4267
2023-05-17T03:58:01.704Z,993.5113
2023-05-17T03:59:02.152Z,993.4549
2023-05-17T04:00:01.691Z,993.595
2023-05-17T04:01:02.256Z,993.5386
2023-05-17T04:02:01.596Z,993.5386
2023-05-17T04:03:02.171Z,993.4822
2023-05-17T04:04:01.639Z,993.4258
2023-05-17T04:05:03.699Z,993.454
2023-05-17T04:06:01.539Z,993.4258
2023-05-17T04:07:02.029Z,993.5668
2023-05-17T04:08:01.439Z,993.4822
2023-05-17T04:09:01.939Z,993.461
2023-05-17T04:10:01.445Z,993.5663
2023-05-17T04:11:01.911Z,993.5167
2023-05-17T04:12:01.356Z,993.5305
2023-05-17T04:13:01.835Z,993.5375
2023-05-17T04:14:02.986Z,993.6786
2023-05-17T04:15:01.838Z,993.6151
2023-05-17T04:16:02.328Z,993.5869
2023-05-17T04:17:01.786Z,993.7424
2023-05-17T04:18:04.009Z,993.6433
2023-05-17T04:19:01.946Z,993.5938
2023-05-17T04:20:02.352Z,993.5658
2023-05-17T04:21:01.673Z,993.5375
2023-05-17T04:22:03.174Z,993.6428
2023-05-17T04:23:03.596Z,993.6428
2023-05-17T04:24:01.362Z,993.6499
2023-05-17T04:25:01.879Z,993.8045
2023-05-17T04:26:04.006Z,993.6633
2023-05-17T04:27:03.464Z,993.8885
2023-05-17T04:28:02.235Z,993.8107
2023-05-17T04:29:03.374Z,993.5781
2023-05-17T04:30:02.331Z,993.7261
2023-05-17T04:31:01.684Z,993.74
2023-05-17T04:32:02.180Z,993.634
2023-05-17T04:33:01.695Z,993.8383
2023-05-17T04:34:02.197Z,993.8027
2023-05-17T04:35:03.291Z,993.718
2023-05-17T04:36:02.041Z,993.767
2023-05-17T04:37:01.457Z,993.8655
2023-05-17T04:38:02.076Z,993.6535
2023-05-17T04:39:01.558Z,993.6605
2023-05-17T04:40:02.000Z,993.7659
2023-05-17T04:41:01.540Z,993.7156
2023-05-17T04:42:02.011Z,993.7156
2023-05-17T04:43:01.530Z,993.7507
2023-05-17T04:44:02.005Z,993.7151
2023-05-17T04:45:01.600Z,993.8771
2023-05-17T04:46:02.226Z,993.6297
2023-05-17T04:47:03.463Z,993.7069
2023-05-17T04:48:02.428Z,993.7277
2023-05-17T04:49:01.884Z,994.0237
2023-05-17T04:50:02.177Z,993.8965
2023-05-17T04:51:01.711Z,993.9246
2023-05-17T04:52:06.101Z,993.8963
2023-05-17T04:53:01.686Z,993.8751
2023-05-17T04:54:02.231Z,993.9242
2023-05-17T04:55:03.356Z,993.9518
2023-05-17T04:56:01.367Z,993.9939
2023-05-17T04:57:01.877Z,993.7818
2023-05-17T04:59:01.849Z,993.9927
2023-05-17T05:00:01.372Z,993.8445
2023-05-17T05:01:01.930Z,993.893
2023-05-17T05:02:02.278Z,994.006
2023-05-17T05:03:02.810Z,993.9917
2023-05-17T05:04:02.547Z,993.9139
2023-05-17T05:05:01.588Z,994.0406
2023-05-17T05:06:02.183Z,994.1109
2023-05-17T05:07:02.034Z,994.047
2023-05-17T05:08:03.371Z,994.047
2023-05-17T05:09:02.030Z,994.1806
2023-05-17T05:10:01.686Z,993.9328
2023-05-17T05:11:01.778Z,993.9183
2023-05-17T05:12:01.459Z,993.9466
2023-05-17T05:13:02.155Z,994.1439
2023-05-17T05:14:01.545Z,994.0163
2023-05-17T05:15:04.042Z,994.0296
2023-05-17T05:16:02.018Z,993.9926
2023-05-17T05:17:01.764Z,994.0198
2023-05-17T05:18:02.072Z,994.1036
2023-05-17T05:19:03.746Z,994.0822
2023-05-17T05:20:02.339Z,994.1031
2023-05-17T05:21:03.632Z,994.1094
2023-05-17T05:22:01.629Z,993.9454
2023-05-17T05:24:01.369Z,994.1631
2023-05-17T05:25:01.994Z,994.0846
2023-05-17T05:26:01.684Z,994.1192
2023-05-17T05:27:06.832Z,994.0547
2023-05-17T05:28:02.103Z,994.153
2023-05-17T05:29:01.762Z,994.1442
2023-05-17T05:30:03.848Z,994.0875
2023-05-17T05:32:01.676Z,994.1366
2023-05-17T05:33:02.329Z,994.171
2023-05-17T05:34:04.317Z,994.1061
2023-05-17T05:35:01.440Z,994.1194
2023-05-17T05:36:01.847Z,994.1404
2023-05-17T05:37:01.447Z,994.2326
2023-05-17T05:38:03.687Z,994.161
2023-05-17T05:39:01.778Z,994.3661
2023-05-17T05:40:02.331Z,994.4079
2023-05-17T05:41:01.837Z,994.273
2023-05-17T05:42:03.134Z,994.386
2023-05-17T05:43:02.050Z,994.3999
2023-05-17T05:44:03.382Z,994.3206
2023-05-17T05:45:02.263Z,994.3839
2023-05-17T05:46:01.841Z,994.5109
2023-05-17T05:47:01.528Z,994.5316
2023-05-17T05:48:02.376Z,994.6023
2023-05-17T05:49:01.704Z,994.6448
2023-05-17T05:50:01.474Z,994.2755
2023-05-17T05:51:02.092Z,994.5026
2023-05-17T05:52:01.751Z,994.5729
2023-05-17T05:53:11.000Z,994.4877
2023-05-17T05:54:02.170Z,994.5232
2023-05-17T05:55:01.782Z,994.4519
2023-05-17T05:56:01.747Z,994.572
2023-05-17T05:57:02.350Z,994.5291
2023-05-17T05:58:01.832Z,994.5859
2023-05-17T05:59:01.583Z,994.5571
2023-05-17T06:00:01.941Z,994.5211
2023-05-17T06:01:02.894Z,994.5495
2023-05-17T06:02:03.023Z,994.4782
2023-05-17T06:03:02.107Z,994.3855
2023-05-17T06:04:01.762Z,994.5128
2023-05-17T06:05:01.346Z,994.6265
2023-05-17T06:06:02.206Z,994.6686
2023-05-17T06:07:01.796Z,994.661
2023-05-17T06:08:01.586Z,994.7639
2023-05-17T06:09:01.766Z,994.5886
2023-05-17T06:10:01.354Z,994.5384
2023-05-17T06:11:01.929Z,994.6661
2023-05-17T06:12:01.607Z,994.6915
2023-05-17T06:13:02.181Z,994.8117
2023-05-17T06:14:01.710Z,994.5442
2023-05-17T06:15:03.832Z,994.6361
2023-05-17T06:16:01.674Z,994.4799
2023-05-17T06:17:01.445Z,994.5581
2023-05-17T06:18:01.967Z,994.6076
2023-05-17T06:19:01.481Z,994.7182
2023-05-17T06:20:02.198Z,994.7104
2023-05-17T06:21:01.715Z,994.7098
2023-05-17T06:22:03.034Z,994.5346
2023-05-17T06:23:03.374Z,994.6195
2023-05-17T06:24:05.005Z,994.7797
2023-05-17T06:25:01.667Z,994.6044
2023-05-17T06:26:01.485Z,994.7219
2023-05-17T06:27:01.915Z,994.625
2023-05-17T06:28:01.764Z,994.625
2023-05-17T06:29:01.427Z,994.7219
2023-05-17T06:30:02.285Z,994.6859
2023-05-17T06:31:01.820Z,994.7213
2023-05-17T06:32:03.179Z,994.6859
2023-05-17T06:33:02.427Z,994.7639
2023-05-17T06:34:03.806Z,994.7139
2023-05-17T06:35:02.304Z,994.8562
2023-05-17T06:37:03.365Z,994.7632
2023-05-17T06:38:01.419Z,994.7347
2023-05-17T06:39:01.914Z,994.7272
2023-05-17T06:40:10.303Z,994.8333
2023-05-17T06:41:03.480Z,994.8686
2023-05-17T06:42:01.362Z,994.8401
2023-05-17T06:43:01.804Z,994.8178
2023-05-17T06:44:02.297Z,994.7602
2023-05-17T06:45:01.731Z,994.8953
2023-05-17T06:46:02.215Z,994.7882
2023-05-17T06:47:01.660Z,994.7879
2023-05-17T06:48:02.235Z,994.6408
2023-05-17T06:49:01.852Z,994.8368
2023-05-17T06:50:02.047Z,994.8217
2023-05-17T06:51:03.165Z,994.8143
2023-05-17T06:52:03.693Z,994.8283
2023-05-17T06:53:01.512Z,994.9914
2023-05-17T06:54:01.915Z,994.8558
2023-05-17T06:55:03.111Z,994.998
2023-05-17T06:56:03.507Z,994.8833
2023-05-17T06:57:01.353Z,994.9185
2023-05-17T06:58:03.535Z,994.8393
2023-05-17T06:59:02.380Z,994.7892
2023-05-17T07:00:03.419Z,994.8313
2023-05-17T07:01:02.234Z,995.0446
2023-05-17T07:02:01.672Z,994.9226
2023-05-17T07:03:02.310Z,994.8215
2023-05-17T07:04:01.831Z,994.8495
2023-05-17T07:05:02.392Z,994.8203
2023-05-17T07:06:03.191Z,994.9407
2023-05-17T07:07:02.076Z,995.0254
2023-05-17T07:08:03.207Z,994.896
2023-05-17T07:09:01.997Z,994.9096
2023-05-17T07:10:01.610Z,995.002
2023-05-17T07:11:01.916Z,994.9011
2023-05-17T07:12:01.436Z,995.0296
2023-05-17T07:13:01.924Z,994.8295
2023-05-17T07:14:01.413Z,994.8505
2023-05-17T07:15:01.846Z,994.8424
2023-05-17T07:17:01.807Z,994.8767
2023-05-17T07:18:02.438Z,994.9831
2023-05-17T07:19:01.864Z,994.9817
2023-05-17T07:20:03.933Z,994.8953
2023-05-17T07:21:03.366Z,994.8236
2023-05-17T07:22:02.186Z,994.8803
2023-05-17T07:23:01.606Z,995.0515
2023-05-17T07:24:03.764Z,994.8295
2023-05-17T07:25:01.546Z,994.9648
2023-05-17T07:26:02.029Z,994.9784
2023-05-17T07:27:03.257Z,994.8142
2023-05-17T07:28:02.028Z,994.9071
2023-05-17T07:29:03.120Z,994.8211
2023-05-17T07:30:01.967Z,994.8567
2023-05-17T07:31:03.129Z,994.7708
2023-05-17T07:32:03.537Z,994.8768
2023-05-17T07:33:01.374Z,995.0191
2023-05-17T07:34:01.895Z,994.9036
2023-05-17T07:35:02.369Z,994.9307
2023-05-17T07:36:01.856Z,995.0209
2023-05-17T07:37:02.268Z,994.82
2023-05-17T07:38:01.676Z,994.948
2023-05-17T07:39:02.164Z,994.8337
2023-05-17T07:40:01.686Z,994.9771
2023-05-17T07:41:02.155Z,994.9258
2023-05-17T07:42:03.802Z,995.1625
2023-05-17T07:43:02.087Z,995.0412
2023-05-17T07:44:04.431Z,994.8715
2023-05-17T07:45:03.763Z,994.9664
2023-05-17T07:46:01.619Z,994.8237
2023-05-17T07:47:02.104Z,995.1104
2023-05-17T07:48:03.291Z,994.9384
2023-05-17T07:49:02.158Z,994.9031
2023-05-17T07:50:01.457Z,994.9464
2023-05-17T07:51:01.925Z,995.2184
2023-05-17T07:52:01.369Z,995.0031
2023-05-17T07:53:01.849Z,994.9031
2023-05-17T07:54:02.324Z,994.8604
2023-05-17T07:55:03.451Z,994.9896
2023-05-17T07:56:02.250Z,995.2476
2023-05-17T07:57:01.693Z,995.2476
2023-05-17T07:58:02.161Z,995.0271
2023-05-17T07:59:01.615Z,995.005
2023-05-17T08:00:02.095Z,995.1197
2023-05-17T08:01:03.215Z,995.0764
2023-05-17T08:02:01.994Z,994.8955
2023-05-17T08:03:01.560Z,995.1361
2023-05-17T08:04:02.018Z,995.0481
2023-05-17T08:05:01.740Z,994.8524
2023-05-17T08:06:01.980Z,994.9799
2023-05-17T08:07:01.370Z,994.8142
2023-05-17T08:08:01.853Z,994.9929
2023-05-17T08:09:02.342Z,994.8
2023-05-17T08:10:01.776Z,994.7508
2023-05-17T08:11:03.928Z,994.871
2023-05-17T08:12:01.692Z,995.0557
2023-05-17T08:13:02.177Z,994.8597
2023-05-17T08:14:01.913Z,994.6925
2023-05-17T08:15:02.189Z,994.7614
2023-05-17T08:16:12.696Z,994.8306
2023-05-17T08:17:02.075Z,994.9507
2023-05-17T08:18:04.401Z,994.7623
2023-05-17T08:19:02.106Z,994.8486
2023-05-17T08:20:01.627Z,994.9063
2023-05-17T08:21:02.021Z,994.9219
2023-05-17T08:22:01.448Z,994.9881
2023-05-17T08:23:01.925Z,994.9176
2023-05-17T08:24:04.200Z,994.9546
2023-05-17T08:25:03.511Z,995.0203
2023-05-17T08:26:02.332Z,994.9134
2023-05-17T08:27:01.761Z,995.0001
2023-05-17T08:28:03.940Z,994.885
2023-05-17T08:29:03.382Z,995.0001
2023-05-17T08:30:02.527Z,994.9647
2023-05-17T08:31:01.620Z,994.9943
2023-05-17T08:32:02.072Z,994.9449
2023-05-17T08:33:01.724Z,995.0605
2023-05-17T08:34:03.750Z,994.968
2023-05-17T08:35:03.242Z,994.9902
2023-05-17T08:36:02.010Z,995.019
2023-05-17T08:37:01.591Z,995.1768
2023-05-17T08:38:03.592Z,995.0406
2023-05-17T08:39:01.447Z,995.0844
2023-05-17T08:40:01.881Z,995.0062
2023-05-17T08:42:03.464Z,995.0791
2023-05-17T08:43:02.255Z,995.1798
2023-05-17T08:44:01.773Z,995.1078
2023-05-17T08:45:03.920Z,995.0713
2023-05-17T08:46:01.682Z,995.2144
2023-05-17T08:47:03.846Z,995.0854
2023-05-17T08:48:01.771Z,995.0854
2023-05-17T08:49:02.240Z,995.0133
2023-05-17T08:50:03.523Z,995.0995
2023-05-17T08:51:03.282Z,995.0713
2023-05-17T08:52:02.071Z,995.0637
2023-05-17T08:53:03.263Z,995.2578
2023-05-17T08:54:02.004Z,995.0138
2023-05-17T08:55:01.471Z,995.0344
2023-05-17T08:56:01.928Z,995.2418
2023-05-17T08:57:01.360Z,995.1188
2023-05-17T08:58:01.848Z,995.0175
2023-05-17T08:59:01.414Z,995.0312
2023-05-17T09:00:01.856Z,995.1957
2023-05-17T09:01:03.916Z,994.9647
2023-05-17T09:02:01.767Z,995.1373
2023-05-17T09:03:02.369Z,995.066
2023-05-17T09:04:01.718Z,994.9302
2023-05-17T09:05:02.316Z,995.2042
2023-05-17T09:06:03.506Z,994.9453
2023-05-17T09:07:03.760Z,995.1028
2023-05-17T09:08:03.208Z,995.0453
2023-05-17T09:09:02.005Z,995.1381
2023-05-17T09:10:03.137Z,995.0594
2023-05-17T09:11:01.914Z,995.139
2023-05-17T09:12:01.354Z,994.8747
2023-05-17T09:13:01.842Z,995.0397
2023-05-17T09:14:01.384Z,995.0317
2023-05-17T09:15:01.865Z,995.0105
2023-05-17T09:16:02.335Z,995.2545
2023-05-17T09:17:03.454Z,994.9677
2023-05-17T09:18:02.368Z,995.205
2023-05-17T09:19:01.833Z,995.205
2023-05-17T09:20:03.983Z,995.0472
2023-05-17T09:21:01.698Z,995.1255
2023-05-17T09:22:03.781Z,995.0827
2023-05-17T09:23:01.589Z,995.0472
2023-05-17T09:24:07.341Z,995.1037
2023-05-17T09:25:01.568Z,995.0312
2023-05-17T09:26:02.001Z,995.023
2023-05-17T09:27:01.564Z,995.2164
2023-05-17T09:28:02.031Z,995.0066
2023-05-17T09:29:03.141Z,995.0279
2023-05-17T09:30:03.598Z,995.092
2023-05-17T09:31:03.021Z,995.2071
2023-05-17T09:32:01.834Z,995.1637
2023-05-17T09:33:01.435Z,995.2632
2023-05-17T09:34:01.864Z,995.208
2023-05-17T09:35:02.241Z,995.1868
2023-05-17T09:36:01.766Z,995.2878
2023-05-17T09:37:02.255Z,995.1674
2023-05-17T09:38:01.694Z,995.0952
2023-05-17T09:39:02.165Z,995.1744
2023-05-17T09:40:03.360Z,995.1462
2023-05-17T09:41:02.170Z,995.124
2023-05-17T09:42:03.289Z,995.1382
2023-05-17T09:43:02.183Z,995.2674
2023-05-17T09:44:01.608Z,995.2811
2023-05-17T09:45:02.091Z,995.2598
2023-05-17T09:46:01.522Z,995.1948
2023-05-17T09:47:02.004Z,995.1439
2023-05-17T09:48:01.601Z,995.208
2023-05-17T09:49:02.061Z,995.1565
2023-05-17T09:50:01.445Z,995.2354
2023-05-17T09:51:01.920Z,995.3222
2023-05-17T09:52:01.363Z,995.1999
2023-05-17T09:53:01.833Z,995.2354
2023-05-17T09:54:01.393Z,995.2133
2023-05-17T09:55:01.769Z,995.0468
2023-05-17T09:56:03.293Z,995.3035
2023-05-17T09:57:02.028Z,995.359
2023-05-17T09:58:01.543Z,995.2849
2023-05-17T09:59:01.914Z,995.2756
2023-05-17T10:00:01.447Z,995.2592
2023-05-17T10:01:01.949Z,995.4238
2023-05-17T10:02:01.454Z,995.467
2023-05-17T10:03:02.018Z,995.2927
2023-05-17T10:04:02.491Z,995.2791
2023-05-17T10:05:01.817Z,995.4598
2023-05-17T10:06:02.252Z,995.3021
2023-05-17T10:07:01.696Z,995.2963
2023-05-17T10:08:03.855Z,995.4987
2023-05-17T10:09:03.309Z,995.4259
2023-05-17T10:10:03.770Z,995.3971
2023-05-17T10:11:01.604Z,995.556
2023-05-17T10:12:03.759Z,995.6116
2023-05-17T10:13:01.522Z,995.4836
2023-05-17T10:14:01.929Z,995.5795
2023-05-17T10:15:01.485Z,995.7006
2023-05-17T10:16:01.922Z,995.7805
2023-05-17T10:17:01.439Z,995.4206
2023-05-17T10:18:03.631Z,995.6054
2023-05-17T10:19:02.405Z,995.5628
2023-05-17T10:20:01.840Z,995.5779
2023-05-17T10:21:03.926Z,995.5264
2023-05-17T10:22:11.490Z,995.5469
2023-05-17T10:23:02.165Z,995.5317
2023-05-17T10:24:01.632Z,995.6668
2023-05-17T10:25:02.111Z,995.5377
2023-05-17T10:26:01.516Z,995.4087
2023-05-17T10:27:03.725Z,995.4585
2023-05-17T10:28:03.124Z,995.4653
2023-05-17T10:29:01.921Z,995.523
2023-05-17T10:30:01.451Z,995.4585
2023-05-17T10:31:01.854Z,995.6237
2023-05-17T10:32:01.463Z,995.4957
2023-05-17T10:33:01.950Z,995.5393
2023-05-17T10:34:02.313Z,995.41
2023-05-17T10:35:11.143Z,995.3878
2023-05-17T10:36:02.251Z,995.3954
2023-05-17T10:37:01.687Z,995.7748
2023-05-17T10:38:02.194Z,995.3269
2023-05-17T10:39:01.594Z,995.5141
2023-05-17T10:40:03.779Z,995.5288
2023-05-17T10:41:02.255Z,995.3706
2023-05-17T10:43:01.535Z,995.4421
2023-05-17T10:44:01.990Z,995.5724
2023-05-17T10:45:01.444Z,995.5008
2023-05-17T10:46:01.928Z,995.4146
2023-05-17T10:47:01.416Z,995.4289
2023-05-17T10:48:01.958Z,995.4724
2023-05-17T10:50:01.765Z,995.6157
2023-05-17T10:51:03.902Z,995.4731
2023-05-17T10:52:01.764Z,995.4447
2023-05-17T10:53:02.278Z,995.7748
2023-05-17T10:54:01.681Z,995.4511
2023-05-17T10:55:03.843Z,995.5238
2023-05-17T10:56:01.609Z,995.436
2023-05-17T10:57:02.084Z,995.4573
2023-05-17T10:58:01.574Z,995.7585
2023-05-17T10:59:01.989Z,995.6647
2023-05-17T11:00:01.518Z,995.5065
2023-05-17T11:01:03.685Z,995.4404
2023-05-17T11:02:02.941Z,995.4127
2023-05-17T11:03:06.950Z,995.6853
2023-05-17T11:04:02.333Z,995.512
2023-05-17T11:05:03.897Z,995.6183
2023-05-17T11:06:02.072Z,995.4826
2023-05-17T11:07:05.198Z,995.512
2023-05-17T11:08:01.525Z,995.3687
2023-05-17T11:09:01.970Z,995.4614
2023-05-17T11:10:01.457Z,995.3964
2023-05-17T11:11:01.931Z,995.533
2023-05-17T11:12:03.043Z,995.452
2023-05-17T11:13:01.850Z,995.436
2023-05-17T11:14:02.344Z,995.4575
2023-05-17T11:15:01.764Z,995.3991
2023-05-17T11:16:02.240Z,995.3987
2023-05-17T11:17:01.744Z,995.3977
2023-05-17T11:18:02.233Z,995.4043
2023-05-17T11:19:01.960Z,995.3537
2023-05-17T11:20:02.407Z,995.3537
2023-05-17T11:21:01.859Z,995.253
2023-05-17T11:22:02.088Z,995.3622
2023-05-17T11:23:01.613Z,995.3184
2023-05-17T11:24:03.828Z,995.4043
2023-05-17T11:25:03.192Z,995.425
2023-05-17T11:26:12.832Z,995.3977
2023-05-17T11:27:01.448Z,995.2459
2023-05-17T11:28:01.918Z,995.2459
2023-05-17T11:29:03.144Z,995.224
2023-05-17T11:30:01.917Z,995.2001
2023-05-17T11:31:03.202Z,995.2495
2023-05-17T11:32:03.596Z,995.2351
2023-05-17T11:33:01.600Z,995.1928
2023-05-17T11:34:01.962Z,995.2022
2023-05-17T11:35:01.479Z,995.224
2023-05-17T11:36:01.825Z,995.3977
2023-05-17T11:37:01.446Z,995.2322
2023-05-17T11:38:01.836Z,995.2615
2023-05-17T11:39:08.199Z,995.3123
2023-05-17T11:40:03.493Z,995.2795
2023-05-17T11:41:06.282Z,995.3047
2023-05-17T11:42:01.779Z,995.2849
2023-05-17T11:43:03.923Z,995.3355
2023-05-17T11:44:01.757Z,995.3794
2023-05-17T11:45:02.266Z,995.3002
2023-05-17T11:46:01.695Z,995.2267
2023-05-17T11:47:02.221Z,995.4404
2023-05-17T11:48:01.773Z,995.1207
2023-05-17T11:49:03.837Z,995.4218
2023-05-17T11:50:01.597Z,995.2566
2023-05-17T11:51:02.609Z,995.1638
2023-05-17T11:52:01.601Z,995.2855
2023-05-17T11:53:02.077Z,995.2486
2023-05-17T11:54:01.521Z,995.3412
2023-05-17T11:55:02.081Z,995.457